Seikou Maru — JD4147 — position and weather

sailwx.info

Track history (hours):
 
Tides and Currents Weather Stations Pressure Air Temp Water Temp Dewpoint Dewpoint Depression Visibility Wind Speed Wind Dir Waves Ship Positions

Seikou Maru

Last reported at 2017-Oct-17 06:11 UTC. Time now 2017-Oct-18 11:09 UTC.
Position N 35°37' E 139°50'.

Length 45 m; draft 2.1 m.

Type: Cargo ship. MMSI: 431009274.

Date/timePositionNaut miles runAvg speedWind from/ knotsBaromVisibWave heightAir tempDewpointWater temp
2017-Oct-17 06:11N 35°37' E 139°50'0 0.5
2017-Oct-17 05:59N 35°37' E 139°50'5 9.7
2017-Oct-17 05:26N 35°32' E 139°50'1 0.7
2017-Oct-17 03:46N 35°31' E 139°50'2 7.3
2017-Oct-17 03:27N 35°33' E 139°50'4 9.3
2017-Oct-17 02:59N 35°37' E 139°50'0 0.0
2017-Oct-16 06:46N 35°37' E 139°50'1 3.6
2017-Oct-16 06:28N 35°36' E 139°50'1 0.5
2017-Oct-16 04:21N 35°35' E 139°50'2 0.1
2017-Oct-15 06:32N 35°37' E 139°50'1 6.0
2017-Oct-15 06:19N 35°36' E 139°50'1 0.4
2017-Oct-15 04:20N 35°35' E 139°50'2 0.7
2017-Oct-15 01:35N 35°37' E 139°50'1 6.9
2017-Oct-15 01:27N 35°36' E 139°50'1 2.5
2017-Oct-15 01:00N 35°35' E 139°50'0 0.0
2017-Oct-14 23:22N 35°35' E 139°50'1 0.1
2017-Oct-14 06:30N 35°36' E 139°50'1 0.4
2017-Oct-14 04:16N 35°35' E 139°50'2 0.4
2017-Oct-13 22:54N 35°37' E 139°50'0 0.0
2017-Oct-13 06:42N 35°37' E 139°50'1 4.4
2017-Oct-13 06:24N 35°36' E 139°50'1 1.7
2017-Oct-13 05:55N 35°35' E 139°50'2 0.5
2017-Oct-13 01:46N 35°37' E 139°50'1 2.8
2017-Oct-13 01:26N 35°36' E 139°50'1 0.7
2017-Oct-12 23:52N 35°35' E 139°50'0 0.0
2017-Oct-12 23:30N 35°35' E 139°50'2 4.2
2017-Oct-12 23:00N 35°37' E 139°50'0 0.0
2017-Oct-12 06:43N 35°37' E 139°50'1 2.5
2017-Oct-12 06:29N 35°37' E 139°50'2 3.0
2017-Oct-12 05:59N 35°35' E 139°50'0 0.0
2017-Oct-12 05:30N 35°35' E 139°50'0 0.0
2017-Oct-12 04:56N 35°35' E 139°50'0 0.0
2017-Oct-12 04:30N 35°35' E 139°50'2 0.0
2017-Oct-10 06:35N 35°37' E 139°50'0 0.0
2017-Oct-10 06:30N 35°37' E 139°50'2 2.4
2017-Oct-10 05:37N 35°35' E 139°50'0 0.0
2017-Oct-10 05:17N 35°35' E 139°50'0 0.0
2017-Oct-10 05:00N 35°35' E 139°50'0 0.0
2017-Oct-10 04:20N 35°35' E 139°50'2 0.8
2017-Oct-10 01:36N 35°37' E 139°50'1 7.2
2017-Oct-10 01:28N 35°36' E 139°50'1 1.1
2017-Oct-10 00:29N 35°35' E 139°50'0 0.0
2017-Oct-09 23:57N 35°35' E 139°50'0 0.0
2017-Oct-09 23:22N 35°35' E 139°50'2 0.1
2017-Oct-08 06:35N 35°37' E 139°50'0 0.9
2017-Oct-08 06:30N 35°37' E 139°50'2 3.2
2017-Oct-08 05:52N 35°35' E 139°50'0 0.0
2017-Oct-08 05:17N 35°35' E 139°50'0 0.0
2017-Oct-08 04:20N 35°35' E 139°50'2 0.1
2017-Oct-07 07:05N 35°37' E 139°50'1 6.7
2017-Oct-07 06:58N 35°36' E 139°50'  
Track history (hours):
 
Tides and Currents Weather Stations Pressure Air Temp Water Temp Dewpoint Dewpoint Depression Visibility Wind Speed Wind Dir Waves Ship Positions

Seikou Maru

Last reported at 2017-Oct-17 06:11 UTC. Time now 2017-Oct-18 11:09 UTC.
Position N 35°37' E 139°50'.

Length 45 m; draft 2.1 m.

Type: Cargo ship. MMSI: 431009274.

Date/timePositionNaut miles runAvg speedWind from/ knotsBaromVisibWave heightAir tempDewpointWater temp
2017-Oct-17 06:11N 35°37' E 139°50'0 0.5
2017-Oct-17 05:59N 35°37' E 139°50'5 9.7
2017-Oct-17 05:26N 35°32' E 139°50'1 0.7
2017-Oct-17 03:46N 35°31' E 139°50'2 7.3
2017-Oct-17 03:27N 35°33' E 139°50'4 9.3
2017-Oct-17 02:59N 35°37' E 139°50'0 0.0
2017-Oct-16 06:46N 35°37' E 139°50'1 3.6
2017-Oct-16 06:28N 35°36' E 139°50'1 0.5
2017-Oct-16 04:21N 35°35' E 139°50'2 0.1
2017-Oct-15 06:32N 35°37' E 139°50'1 6.0
2017-Oct-15 06:19N 35°36' E 139°50'1 0.4
2017-Oct-15 04:20N 35°35' E 139°50'2 0.7
2017-Oct-15 01:35N 35°37' E 139°50'1 6.9
2017-Oct-15 01:27N 35°36' E 139°50'1 2.5
2017-Oct-15 01:00N 35°35' E 139°50'0 0.0
2017-Oct-14 23:22N 35°35' E 139°50'1 0.1
2017-Oct-14 06:30N 35°36' E 139°50'1 0.4
2017-Oct-14 04:16N 35°35' E 139°50'2 0.4
2017-Oct-13 22:54N 35°37' E 139°50'0 0.0
2017-Oct-13 06:42N 35°37' E 139°50'1 4.4
2017-Oct-13 06:24N 35°36' E 139°50'1 1.7
2017-Oct-13 05:55N 35°35' E 139°50'2 0.5
2017-Oct-13 01:46N 35°37' E 139°50'1 2.8
2017-Oct-13 01:26N 35°36' E 139°50'1 0.7
2017-Oct-12 23:52N 35°35' E 139°50'0 0.0
2017-Oct-12 23:30N 35°35' E 139°50'2 4.2
2017-Oct-12 23:00N 35°37' E 139°50'0 0.0
2017-Oct-12 06:43N 35°37' E 139°50'1 2.5
2017-Oct-12 06:29N 35°37' E 139°50'2 3.0
2017-Oct-12 05:59N 35°35' E 139°50'0 0.0
2017-Oct-12 05:30N 35°35' E 139°50'0 0.0
2017-Oct-12 04:56N 35°35' E 139°50'0 0.0
2017-Oct-12 04:30N 35°35' E 139°50'2 0.0
2017-Oct-10 06:35N 35°37' E 139°50'0 0.0
2017-Oct-10 06:30N 35°37' E 139°50'2 2.4
2017-Oct-10 05:37N 35°35' E 139°50'0 0.0
2017-Oct-10 05:17N 35°35' E 139°50'0 0.0
2017-Oct-10 05:00N 35°35' E 139°50'0 0.0
2017-Oct-10 04:20N 35°35' E 139°50'2 0.8
2017-Oct-10 01:36N 35°37' E 139°50'1 7.2
2017-Oct-10 01:28N 35°36' E 139°50'1 1.1
2017-Oct-10 00:29N 35°35' E 139°50'0 0.0
2017-Oct-09 23:57N 35°35' E 139°50'0 0.0
2017-Oct-09 23:22N 35°35' E 139°50'2 0.1
2017-Oct-08 06:35N 35°37' E 139°50'0 0.9
2017-Oct-08 06:30N 35°37' E 139°50'2 3.2
2017-Oct-08 05:52N 35°35' E 139°50'0 0.0
2017-Oct-08 05:17N 35°35' E 139°50'0 0.0
2017-Oct-08 04:20N 35°35' E 139°50'2 0.1
2017-Oct-07 07:05N 35°37' E 139°50'1 6.7
2017-Oct-07 06:58N 35°36' E 139°50'  

Dump ship's entire track history